Antalya, Turkey

8:59 PM EEST on August 29, 2016 (GMT +0300)
Antalya | | Change Station

Elev 174 ft 36.90 °N, 30.80 °E | Updated 39 minutes ago

Partly Cloudy
Partly Cloudy
81 °F
Feels Like 84 °F
N
4
Wind Variable Wind from SE

Today
High -- | Low -- °F
--% Chance of Precip.
Yesterday
High -- | Low -- °F
Precip. -- in
Pressure 29.83 in
Visibility 6.2 miles
Clouds Few 3000 ft
Heat Index 84 °F
Dew Point 70 °F
Humidity 70%
Rainfall 0.00 in
Snow Depth Not available.
6:25 AM 7:29 PM
Waning Crescent, 7% visible
METAR LTAI 291720Z 14003KT 100V200 9999 FEW030 27/21 Q1010 NOSIG RMK RWY18C 15005KT 120V180 RWY36R 15003KT RWY18L 16003KT
Pressure 29.83 in
Visibility 6.2 miles
Clouds Few 3000 ft
Heat Index 84 °F
Dew Point 70 °F
Humidity 70%
Rainfall 0.00 in
Snow Depth Not available.
6:25 AM 7:29 PM
Waning Crescent, 7% visible
METAR LTAI 291720Z 14003KT 100V200 9999 FEW030 27/21 Q1010 NOSIG RMK RWY18C 15005KT 120V180 RWY36R 15003KT RWY18L 16003KT

10-Day Weather Forecast

×

Almanac

Astronomy

Aug. 29, 2016 Rise Set
Actual Time
Civil Twilight
Nautical Twilight
Astronomical Twilight
Moon
Length of Visible Light
Length of Day
Tomorrow will be .
, % of the Moon is Illuminated

Today's Extremes

Country Highs Country Lows

Community

WunderPhotos

Upload Photos

1,935,683 photos uploaded!

WunderBlog® & News

Nearby

Air Quality

  Air Quality AQ Index Pollutant
Not available.

Snow Depth

Station Depth Elevation

Earthquake Activity

City Distance Mag. Time & Date
Minimum magnitude displayed is 2.5.

Coastal Water Temperatures

Place Temperature

Stations

Nearby Weather Stations

Station Location Temp. Windchill Dew Point Humidity Wind Precip. Elev Updated Type